Time;durP1;ratioP1;P1;durP2;ratioP2;P2;SDS_P1;SDS_P2;PMS_P1;PMS_P2;Temp;Humidity;BMP_temperature;BMP_pressure;BME280_temperature;BME280_humidity;BME280_pressure;Samples;Min_cycle;Max_cycle;Signal;HPM_P1;HPM_P2
2024/01/02 00:02:14;;;;;;;15.17;3.97;;;;;;;;;;5045752;28;20178;-72
2024/01/02 00:04:40;;;;;;;19.13;4.23;;;;;;;;;;5061447;28;20209;-71
2024/01/02 00:07:06;;;;;;;35.03;19.20;;;;;;;;;;5062694;28;20175;-71
2024/01/02 00:09:32;;;;;;;37.60;17.43;;;;;;;;;;5040317;28;20636;-71
2024/01/02 00:11:58;;;;;;;63.20;37.07;;;;;;;;;;5061803;28;20188;-70
2024/01/02 00:14:28;;;;;;;13.43;4.90;;;;;;;;;;5061339;28;20725;-72
2024/01/02 00:16:54;;;;;;;13.67;7.40;;;;;;;;;;5056106;28;20175;-70
2024/01/02 00:19:20;;;;;;;24.53;10.97;;;;;;;;;;5057914;28;20652;-72
2024/01/02 00:21:46;;;;;;;14.23;3.50;;;;;;;;;;5038535;28;20186;-72
2024/01/02 00:24:12;;;;;;;14.87;7.07;;;;;;;;;;5055957;28;20206;-71
2024/01/02 00:26:39;;;;;;;13.67;5.90;;;;;;;;;;5038149;28;20231;-71
2024/01/02 00:29:05;;;;;;;12.37;6.83;;;;;;;;;;5056431;28;20170;-70
2024/01/02 00:31:31;;;;;;;17.67;6.50;;;;;;;;;;5056457;28;20183;-72
2024/01/02 00:33:57;;;;;;;20.80;6.47;;;;;;;;;;5038279;28;20596;-70
2024/01/02 00:36:23;;;;;;;12.00;4.23;;;;;;;;;;5056322;28;20668;-70
2024/01/02 00:38:49;;;;;;;20.13;11.00;;;;;;;;;;5057206;28;20759;-70
2024/01/02 00:41:15;;;;;;;13.17;4.00;;;;;;;;;;5039796;28;20266;-70
2024/01/02 00:43:41;;;;;;;12.30;5.17;;;;;;;;;;5038047;28;20202;-71
2024/01/02 00:46:07;;;;;;;16.93;5.23;;;;;;;;;;5056109;28;20215;-71
2024/01/02 00:51:12;;;;;;;13.37;7.43;;;;;;;;;;5035814;28;20217;-70
2024/01/02 00:53:38;;;;;;;15.17;7.80;;;;;;;;;;5036509;28;20234;-70
2024/01/02 00:56:04;;;;;;;10.80;4.00;;;;;;;;;;5018576;28;20183;-71
2024/01/02 00:58:30;;;;;;;8.63;2.83;;;;;;;;;;5018962;28;20278;-70
2024/01/02 01:00:56;;;;;;;10.67;5.50;;;;;;;;;;5036365;28;20238;-70
2024/01/02 01:03:22;;;;;;;13.63;6.63;;;;;;;;;;5036622;28;20179;-70
2024/01/02 01:05:48;;;;;;;17.53;9.40;;;;;;;;;;5036135;28;20206;-70
2024/01/02 01:08:14;;;;;;;10.77;3.50;;;;;;;;;;5018736;28;20649;-71
2024/01/02 01:10:40;;;;;;;9.83;3.70;;;;;;;;;;5036359;28;20553;-70
2024/01/02 01:13:06;;;;;;;11.77;4.60;;;;;;;;;;5036454;28;20596;-70
2024/01/02 01:15:32;;;;;;;15.57;10.73;;;;;;;;;;5018403;28;20558;-69
2024/01/02 01:17:58;;;;;;;13.60;3.83;;;;;;;;;;5036368;28;20556;-70
2024/01/02 01:20:24;;;;;;;10.53;3.73;;;;;;;;;;5018032;28;20723;-71
2024/01/02 01:22:49;;;;;;;10.60;4.43;;;;;;;;;;5018081;28;20801;-70
2024/01/02 01:25:15;;;;;;;11.53;2.70;;;;;;;;;;5036123;28;20585;-70
2024/01/02 01:27:41;;;;;;;9.93;4.00;;;;;;;;;;5035749;28;20557;-70
2024/01/02 01:30:08;;;;;;;10.47;5.17;;;;;;;;;;5035714;28;20244;-70
2024/01/02 01:32:34;;;;;;;9.43;2.83;;;;;;;;;;5035676;28;20176;-70
2024/01/02 01:35:00;;;;;;;11.00;3.33;;;;;;;;;;5035976;28;20183;-70
2024/01/02 01:37:26;;;;;;;11.40;2.40;;;;;;;;;;5036022;28;20763;-70
2024/01/02 01:39:52;;;;;;;17.47;8.57;;;;;;;;;;5036483;28;20695;-70
2024/01/02 01:42:18;;;;;;;13.70;5.70;;;;;;;;;;5017997;28;20653;-70
2024/01/02 01:44:44;;;;;;;6.47;2.73;;;;;;;;;;5035680;28;20253;-70
2024/01/02 01:47:10;;;;;;;9.73;3.43;;;;;;;;;;5018438;28;20175;-70
2024/01/02 01:49:36;;;;;;;9.10;4.47;;;;;;;;;;5017867;28;20218;-70
2024/01/02 01:52:02;;;;;;;11.20;5.20;;;;;;;;;;5017728;28;20203;-70
2024/01/02 01:54:28;;;;;;;8.23;2.47;;;;;;;;;;5017581;28;20680;-70
2024/01/02 01:56:54;;;;;;;9.57;3.43;;;;;;;;;;5039918;28;20187;-70
2024/01/02 01:59:20;;;;;;;8.67;2.90;;;;;;;;;;5025373;28;20202;-70
2024/01/02 02:01:47;;;;;;;3.13;1.70;;;;;;;;;;5044192;28;20313;-69
2024/01/02 02:04:15;;;;;;;8.53;3.30;;;;;;;;;;5018051;28;20707;-72
2024/01/02 02:06:41;;;;;;;7.30;4.20;;;;;;;;;;5035289;28;20254;-71
2024/01/02 02:09:07;;;;;;;7.17;3.17;;;;;;;;;;5035003;28;20219;-71
2024/01/02 02:11:33;;;;;;;7.70;4.83;;;;;;;;;;5035126;28;20172;-70
2024/01/02 02:14:00;;;;;;;10.23;6.90;;;;;;;;;;5034242;28;20563;-70
2024/01/02 02:16:26;;;;;;;7.97;2.53;;;;;;;;;;5034845;28;20257;-71
2024/01/02 02:18:52;;;;;;;7.43;3.43;;;;;;;;;;5035240;28;20601;-70
2024/01/02 02:21:18;;;;;;;7.23;2.77;;;;;;;;;;5034971;28;20707;-70
2024/01/02 02:23:44;;;;;;;7.97;2.10;;;;;;;;;;5017185;28;20207;-72
2024/01/02 02:26:10;;;;;;;5.63;2.33;;;;;;;;;;5016944;28;20246;-70
2024/01/02 02:28:37;;;;;;;6.03;1.77;;;;;;;;;;5016922;28;20225;-72
2024/01/02 02:31:03;;;;;;;5.77;2.07;;;;;;;;;;5034622;28;20273;-72
2024/01/02 02:33:29;;;;;;;6.10;1.80;;;;;;;;;;5034856;28;20187;-70
2024/01/02 02:35:55;;;;;;;5.10;1.50;;;;;;;;;;5017167;28;20637;-72
2024/01/02 02:38:21;;;;;;;6.90;1.57;;;;;;;;;;5016974;28;20186;-72
2024/01/02 02:40:47;;;;;;;4.77;2.10;;;;;;;;;;5016777;28;20209;-72
2024/01/02 02:43:13;;;;;;;5.73;1.87;;;;;;;;;;5017296;28;20187;-70
2024/01/02 02:45:39;;;;;;;3.20;1.67;;;;;;;;;;5034436;28;20203;-72
2024/01/02 02:48:05;;;;;;;2.37;1.53;;;;;;;;;;5017293;28;20556;-71
2024/01/02 02:50:31;;;;;;;5.70;2.03;;;;;;;;;;5035057;28;20221;-71
2024/01/02 02:52:58;;;;;;;2.63;1.60;;;;;;;;;;5017509;28;20182;-70
2024/01/02 02:55:24;;;;;;;5.40;1.80;;;;;;;;;;5040112;28;20210;-70
2024/01/02 02:57:50;;;;;;;7.20;1.90;;;;;;;;;;5045201;28;20559;-69
2024/01/02 03:00:16;;;;;;;4.80;1.90;;;;;;;;;;5027305;28;20210;-72
2024/01/02 03:02:42;;;;;;;4.90;2.33;;;;;;;;;;5049473;28;20175;-71
2024/01/02 03:05:08;;;;;;;3.80;2.10;;;;;;;;;;5046922;28;20203;-71
2024/01/02 03:07:34;;;;;;;3.80;2.13;;;;;;;;;;5039791;28;20179;-72
2024/01/02 03:10:00;;;;;;;6.10;2.63;;;;;;;;;;5041050;28;20201;-69
2024/01/02 03:12:26;;;;;;;5.43;2.73;;;;;;;;;;5040917;28;20179;-71
2024/01/02 03:14:52;;;;;;;3.67;1.93;;;;;;;;;;5022857;28;20210;-72
2024/01/02 03:17:18;;;;;;;2.83;1.80;;;;;;;;;;5040617;28;20186;-72
2024/01/02 03:19:44;;;;;;;4.40;1.83;;;;;;;;;;5022534;28;20202;-71
2024/01/02 03:22:10;;;;;;;3.63;2.10;;;;;;;;;;5022844;28;20174;-72
2024/01/02 03:24:35;;;;;;;5.27;1.73;;;;;;;;;;5022727;28;20198;-70
2024/01/02 03:27:02;;;;;;;2.97;2.00;;;;;;;;;;5040715;28;20258;-71
2024/01/02 03:29:28;;;;;;;4.20;2.00;;;;;;;;;;5040344;28;20695;-70
2024/01/02 03:31:54;;;;;;;3.40;2.00;;;;;;;;;;5041412;28;20167;-71
2024/01/02 03:34:20;;;;;;;4.17;2.03;;;;;;;;;;5041185;28;20179;-72
2024/01/02 03:36:46;;;;;;;5.30;2.10;;;;;;;;;;5022568;28;20186;-71
2024/01/02 03:39:12;;;;;;;4.27;1.97;;;;;;;;;;5022333;28;20285;-69
2024/01/02 03:41:38;;;;;;;5.90;1.97;;;;;;;;;;5040188;28;20325;-70
2024/01/02 03:44:04;;;;;;;3.37;1.57;;;;;;;;;;5022190;28;20186;-70
2024/01/02 03:46:30;;;;;;;1.33;1.23;;;;;;;;;;5040193;28;20567;-71
2024/01/02 03:48:55;;;;;;;1.33;1.10;;;;;;;;;;5039904;28;20183;-70
2024/01/02 03:51:21;;;;;;;5.80;1.30;;;;;;;;;;5022267;28;20181;-70
2024/01/02 03:53:47;;;;;;;1.70;1.23;;;;;;;;;;5040305;28;20202;-70
2024/01/02 03:56:16;;;;;;;1.77;1.50;;;;;;;;;;5040419;28;20183;-71
2024/01/02 03:58:42;;;;;;;1.67;1.47;;;;;;;;;;5039981;28;20546;-72
2024/01/02 04:01:08;;;;;;;6.00;1.33;;;;;;;;;;5039934;28;20190;-70
2024/01/02 04:03:34;;;;;;;2.03;1.40;;;;;;;;;;5022075;28;20190;-70
2024/01/02 04:06:00;;;;;;;1.47;1.20;;;;;;;;;;5039913;28;20210;-70
2024/01/02 04:08:26;;;;;;;5.30;3.47;;;;;;;;;;5040266;28;20175;-69
2024/01/02 04:10:52;;;;;;;2.30;2.10;;;;;;;;;;5021970;28;20260;-70
2024/01/02 04:13:18;;;;;;;5.83;1.40;;;;;;;;;;5039997;28;20182;-69
2024/01/02 04:15:44;;;;;;;2.27;1.10;;;;;;;;;;5022313;28;20178;-70
2024/01/02 04:18:10;;;;;;;1.20;1.10;;;;;;;;;;5038762;28;20176;-70
2024/01/02 04:20:36;;;;;;;1.53;0.90;;;;;;;;;;5019149;28;20647;-70
2024/01/02 04:23:02;;;;;;;3.37;1.80;;;;;;;;;;5019101;28;20191;-70
2024/01/02 04:25:28;;;;;;;1.50;1.30;;;;;;;;;;5037215;28;20191;-70
2024/01/02 04:27:55;;;;;;;1.70;0.90;;;;;;;;;;5036698;28;20171;-70
2024/01/02 04:30:22;;;;;;;2.57;1.20;;;;;;;;;;5018993;28;20344;-70
2024/01/02 04:32:48;;;;;;;3.60;1.80;;;;;;;;;;5019003;28;20748;-71
2024/01/02 04:35:14;;;;;;;1.20;1.10;;;;;;;;;;5018826;28;20633;-72
2024/01/02 04:37:40;;;;;;;1.37;1.00;;;;;;;;;;5018942;28;20633;-72
2024/01/02 04:40:06;;;;;;;1.93;1.20;;;;;;;;;;5019042;28;20210;-72
2024/01/02 04:42:36;;;;;;;1.97;1.27;;;;;;;;;;5036694;28;20183;-70
2024/01/02 04:45:03;;;;;;;1.87;1.20;;;;;;;;;;5037446;28;20202;-71
2024/01/02 04:47:29;;;;;;;1.97;1.77;;;;;;;;;;5036851;28;20175;-71
2024/01/02 04:49:55;;;;;;;3.37;1.50;;;;;;;;;;5018519;28;20229;-71
2024/01/02 04:52:21;;;;;;;1.07;0.97;;;;;;;;;;5018961;28;20186;-71
2024/01/02 04:54:48;;;;;;;2.77;1.30;;;;;;;;;;5036545;28;20187;-71
2024/01/02 04:57:14;;;;;;;1.47;1.20;;;;;;;;;;5018786;28;20191;-71
2024/01/02 04:59:40;;;;;;;2.33;1.53;;;;;;;;;;5018538;28;20199;-71
2024/01/02 05:02:06;;;;;;;5.27;2.17;;;;;;;;;;5018733;28;20645;-72
2024/01/02 05:04:33;;;;;;;4.60;1.90;;;;;;;;;;5036354;28;20636;-70
2024/01/02 05:06:59;;;;;;;3.30;2.30;;;;;;;;;;5035888;28;20626;-72
2024/01/02 05:09:26;;;;;;;3.47;2.10;;;;;;;;;;5036079;28;20195;-70
2024/01/02 05:11:52;;;;;;;7.53;2.80;;;;;;;;;;5035966;28;20175;-72
2024/01/02 05:14:18;;;;;;;5.87;2.23;;;;;;;;;;5035784;28;20186;-72
2024/01/02 05:16:44;;;;;;;8.07;3.87;;;;;;;;;;5018540;28;20179;-71
2024/01/02 05:19:10;;;;;;;4.67;3.77;;;;;;;;;;5018062;28;20261;-70
2024/01/02 05:21:36;;;;;;;7.53;5.90;;;;;;;;;;5035565;28;20610;-70
2024/01/02 05:24:02;;;;;;;9.80;7.57;;;;;;;;;;5019115;28;20536;-70
2024/01/02 05:26:28;;;;;;;7.23;6.30;;;;;;;;;;5024986;28;20282;-70
2024/01/02 05:28:54;;;;;;;10.30;8.63;;;;;;;;;;5042742;28;20177;-71
2024/01/02 05:31:20;;;;;;;13.20;10.73;;;;;;;;;;5036734;28;20239;-70
2024/01/02 05:33:46;;;;;;;12.77;10.43;;;;;;;;;;5035532;28;20171;-71
2024/01/02 05:36:12;;;;;;;16.93;11.40;;;;;;;;;;5017662;28;20187;-71
2024/01/02 05:38:38;;;;;;;9.93;8.83;;;;;;;;;;5017498;28;20183;-71
2024/01/02 05:41:04;;;;;;;11.67;9.90;;;;;;;;;;5017403;28;20189;-72
2024/01/02 05:43:30;;;;;;;10.63;8.10;;;;;;;;;;5035311;28;20215;-72
2024/01/02 05:45:56;;;;;;;11.20;7.60;;;;;;;;;;5034807;28;20222;-72
2024/01/02 05:48:22;;;;;;;8.70;7.80;;;;;;;;;;5017283;28;20181;-72
2024/01/02 05:50:47;;;;;;;5.23;4.73;;;;;;;;;;5034865;28;20253;-72
2024/01/02 05:53:13;;;;;;;6.60;3.90;;;;;;;;;;5035688;28;20179;-72
2024/01/02 05:55:39;;;;;;;3.37;3.07;;;;;;;;;;5036429;28;20182;-72
2024/01/02 05:58:05;;;;;;;3.23;2.93;;;;;;;;;;5021380;28;20182;-72
2024/01/02 06:00:31;;;;;;;4.77;2.90;;;;;;;;;;5024900;28;20288;-71
2024/01/02 06:02:58;;;;;;;2.80;2.60;;;;;;;;;;5020202;28;20244;-72
2024/01/02 06:05:24;;;;;;;2.40;2.20;;;;;;;;;;5035566;28;20555;-71
2024/01/02 06:07:49;;;;;;;3.50;2.40;;;;;;;;;;5036968;28;20229;-72
2024/01/02 06:10:15;;;;;;;2.80;2.43;;;;;;;;;;5036691;28;20191;-70
2024/01/02 06:12:41;;;;;;;2.77;2.57;;;;;;;;;;5018099;28;20242;-71
2024/01/02 06:15:07;;;;;;;4.97;2.63;;;;;;;;;;5035392;28;20605;-72
2024/01/02 06:17:33;;;;;;;2.30;2.10;;;;;;;;;;5017281;28;20210;-70
2024/01/02 06:19:59;;;;;;;2.17;1.90;;;;;;;;;;5017007;28;20203;-70
2024/01/02 06:22:25;;;;;;;1.80;1.70;;;;;;;;;;5016658;28;20217;-70
2024/01/02 06:24:51;;;;;;;1.50;1.40;;;;;;;;;;5034512;28;20247;-70
2024/01/02 06:27:17;;;;;;;0.97;0.90;;;;;;;;;;5034243;28;20183;-70
2024/01/02 06:29:43;;;;;;;0.90;0.90;;;;;;;;;;5033585;28;20202;-70
2024/01/02 06:32:09;;;;;;;1.10;1.00;;;;;;;;;;5016276;28;20269;-70
2024/01/02 06:34:35;;;;;;;0.83;0.83;;;;;;;;;;5033854;28;20179;-70
2024/01/02 06:37:01;;;;;;;0.80;0.80;;;;;;;;;;5034327;28;20183;-70
2024/01/02 06:39:27;;;;;;;1.90;0.90;;;;;;;;;;5016328;28;20347;-70
2024/01/02 06:41:53;;;;;;;1.07;1.00;;;;;;;;;;5033531;28;20646;-70
2024/01/02 06:44:20;;;;;;;1.00;1.00;;;;;;;;;;5033923;28;20234;-70
2024/01/02 06:46:46;;;;;;;1.80;1.00;;;;;;;;;;5033497;28;20175;-70
2024/01/02 06:49:12;;;;;;;0.90;0.90;;;;;;;;;;5033459;28;20210;-71
2024/01/02 06:51:38;;;;;;;0.90;0.90;;;;;;;;;;5015836;28;20568;-70
2024/01/02 06:54:04;;;;;;;1.07;1.00;;;;;;;;;;5037009;23;20661;-71
2024/01/02 06:56:30;;;;;;;1.17;1.07;;;;;;;;;;5014835;28;20560;-72
2024/01/02 06:58:56;;;;;;;0.90;0.90;;;;;;;;;;5014536;28;20201;-74
2024/01/02 07:01:22;;;;;;;1.23;1.20;;;;;;;;;;5012585;28;20176;-73
2024/01/02 07:03:48;;;;;;;1.03;0.90;;;;;;;;;;5013685;28;20199;-72
2024/01/02 07:06:14;;;;;;;1.07;1.07;;;;;;;;;;5013527;28;20670;-72
2024/01/02 07:08:40;;;;;;;1.20;1.20;;;;;;;;;;5013399;28;20545;-71
2024/01/02 07:11:06;;;;;;;1.00;1.00;;;;;;;;;;5013012;28;20260;-72
2024/01/02 07:13:32;;;;;;;1.00;1.00;;;;;;;;;;5013162;28;20634;-71
2024/01/02 07:15:58;;;;;;;1.20;1.10;;;;;;;;;;5013251;28;20528;-72
2024/01/02 07:18:24;;;;;;;1.17;1.13;;;;;;;;;;5011604;28;20647;-70
2024/01/02 07:20:50;;;;;;;1.53;1.33;;;;;;;;;;5012698;28;20188;-71
2024/01/02 07:23:18;;;;;;;1.43;1.10;;;;;;;;;;5011591;28;20176;-71
2024/01/02 07:25:44;;;;;;;2.10;1.33;;;;;;;;;;5011294;28;20215;-71
2024/01/02 07:28:10;;;;;;;1.10;1.00;;;;;;;;;;5012574;28;20176;-71
2024/01/02 07:30:36;;;;;;;1.13;1.13;;;;;;;;;;5011695;28;20211;-72
2024/01/02 07:33:02;;;;;;;2.63;1.30;;;;;;;;;;5012629;28;20176;-71
2024/01/02 07:35:28;;;;;;;2.30;1.20;;;;;;;;;;5012619;28;20195;-71
2024/01/02 07:37:54;;;;;;;1.23;1.13;;;;;;;;;;5012603;28;20263;-72
2024/01/02 07:40:20;;;;;;;1.30;1.20;;;;;;;;;;5012916;28;20187;-73
2024/01/02 07:42:46;;;;;;;1.30;1.20;;;;;;;;;;5012942;28;20601;-70
2024/01/02 07:45:12;;;;;;;1.00;1.00;;;;;;;;;;5012412;28;20226;-72
2024/01/02 07:47:38;;;;;;;1.10;1.10;;;;;;;;;;5011503;28;20182;-73
2024/01/02 07:50:04;;;;;;;1.20;1.20;;;;;;;;;;5012767;28;20179;-71
2024/01/02 07:52:33;;;;;;;1.20;1.20;;;;;;;;;;5012822;28;20176;-73
2024/01/02 07:54:59;;;;;;;1.17;1.17;;;;;;;;;;5013744;28;20223;-72
2024/01/02 07:57:25;;;;;;;1.93;1.10;;;;;;;;;;5016811;28;20176;-72
2024/01/02 07:59:51;;;;;;;0.90;0.90;;;;;;;;;;5016224;28;20180;-70
2024/01/02 08:02:17;;;;;;;1.53;1.23;;;;;;;;;;5016342;28;20187;-70
2024/01/02 08:04:43;;;;;;;1.20;1.20;;;;;;;;;;5015808;28;20303;-72
2024/01/02 08:07:09;;;;;;;1.20;1.10;;;;;;;;;;5016131;28;20176;-71
2024/01/02 08:09:35;;;;;;;1.30;1.20;;;;;;;;;;5016483;28;20255;-72
2024/01/02 08:12:01;;;;;;;1.20;1.20;;;;;;;;;;5016815;28;20200;-71
2024/01/02 08:14:27;;;;;;;2.00;1.50;;;;;;;;;;5016039;28;20696;-70
2024/01/02 08:16:53;;;;;;;1.27;1.20;;;;;;;;;;5015812;28;20222;-72
2024/01/02 08:19:19;;;;;;;1.10;1.10;;;;;;;;;;5015710;28;20180;-70
2024/01/02 08:21:46;;;;;;;1.23;1.13;;;;;;;;;;5014405;28;20639;-72
2024/01/02 08:24:12;;;;;;;1.20;1.10;;;;;;;;;;5014340;28;20203;-71
2024/01/02 08:26:38;;;;;;;1.20;1.10;;;;;;;;;;5014697;28;20271;-71
2024/01/02 08:29:04;;;;;;;1.83;1.23;;;;;;;;;;5015680;28;20172;-71
2024/01/02 08:31:30;;;;;;;1.20;1.10;;;;;;;;;;5015604;28;20175;-71
2024/01/02 08:33:56;;;;;;;1.07;1.07;;;;;;;;;;5015386;28;20282;-71
2024/01/02 08:36:22;;;;;;;1.53;1.10;;;;;;;;;;5015396;28;20202;-70
2024/01/02 08:38:48;;;;;;;1.40;1.30;;;;;;;;;;5014206;28;20274;-69
2024/01/02 08:41:14;;;;;;;1.30;1.20;;;;;;;;;;5015814;28;20630;-69
2024/01/02 08:43:40;;;;;;;1.37;1.27;;;;;;;;;;5015320;28;20218;-71
2024/01/02 08:46:06;;;;;;;2.40;1.20;;;;;;;;;;5015665;28;20244;-71
2024/01/02 08:48:32;;;;;;;1.30;1.20;;;;;;;;;;5013950;28;20200;-72
2024/01/02 08:50:58;;;;;;;1.07;1.00;;;;;;;;;;5015392;28;20184;-71
2024/01/02 08:53:24;;;;;;;1.73;1.00;;;;;;;;;;5015711;28;20168;-71
2024/01/02 08:55:50;;;;;;;1.27;1.17;;;;;;;;;;5016377;28;20262;-70
2024/01/02 08:58:16;;;;;;;1.40;1.17;;;;;;;;;;5016162;28;20180;-70
2024/01/02 09:00:42;;;;;;;3.17;1.30;;;;;;;;;;5015284;28;20186;-71
2024/01/02 09:03:08;;;;;;;1.10;1.10;;;;;;;;;;5013424;28;20271;-70
2024/01/02 09:05:35;;;;;;;1.00;1.00;;;;;;;;;;5012967;28;20265;-70
2024/01/02 09:08:01;;;;;;;2.30;1.10;;;;;;;;;;5013499;28;20190;-70
2024/01/02 09:10:27;;;;;;;1.40;1.20;;;;;;;;;;5013310;28;20279;-70
2024/01/02 09:12:52;;;;;;;1.00;1.00;;;;;;;;;;5013896;28;20219;-69
2024/01/02 09:15:19;;;;;;;1.30;1.23;;;;;;;;;;5015930;28;20203;-69
2024/01/02 09:17:45;;;;;;;2.10;1.10;;;;;;;;;;5014346;28;20187;-70
2024/01/02 09:20:11;;;;;;;1.10;1.10;;;;;;;;;;5015417;28;20199;-69
2024/01/02 09:22:37;;;;;;;1.10;1.10;;;;;;;;;;5015291;28;20176;-70
2024/01/02 09:25:04;;;;;;;0.90;0.90;;;;;;;;;;5014306;28;20268;-70
2024/01/02 09:27:30;;;;;;;1.27;1.17;;;;;;;;;;5014529;28;20184;-70
2024/01/02 09:29:58;;;;;;;1.23;1.13;;;;;;;;;;5014395;28;20180;-69
2024/01/02 09:32:24;;;;;;;1.27;1.20;;;;;;;;;;5014311;28;20167;-69
2024/01/02 09:34:50;;;;;;;1.13;1.10;;;;;;;;;;5014288;28;20634;-71
2024/01/02 09:37:16;;;;;;;1.33;1.33;;;;;;;;;;5014464;28;20184;-71
2024/01/02 09:39:43;;;;;;;1.00;0.90;;;;;;;;;;5012694;28;20184;-71
2024/01/02 09:42:18;;;;;;;1.20;1.20;;;;;;;;;;5012943;28;20227;-71
2024/01/02 09:45:07;;;;;;;1.17;1.07;;;;;;;;;;5012980;28;20207;-71
2024/01/02 09:47:46;;;;;;;1.23;1.13;;;;;;;;;;5014463;28;20167;-71
2024/01/02 09:50:17;;;;;;;2.20;1.20;;;;;;;;;;5014349;28;20182;-71
2024/01/02 09:52:53;;;;;;;1.90;1.13;;;;;;;;;;5014316;28;20160;-71
2024/01/02 09:55:22;;;;;;;1.23;1.20;;;;;;;;;;5013730;28;20693;-71
2024/01/02 09:58:05;;;;;;;1.77;1.50;;;;;;;;;;5013058;28;20187;-71
2024/01/02 10:00:30;;;;;;;1.27;1.20;;;;;;;;;;5014003;28;20206;-71
2024/01/02 10:03:10;;;;;;;1.47;1.37;;;;;;;;;;5014290;28;20213;-71
2024/01/02 10:05:56;;;;;;;2.57;2.37;;;;;;;;;;5012713;28;20320;-71
2024/01/02 10:08:25;;;;;;;2.77;2.53;;;;;;;;;;5013683;28;20662;-71
2024/01/02 10:11:06;;;;;;;2.80;2.53;;;;;;;;;;5013773;28;20202;-71
2024/01/02 10:13:39;;;;;;;2.67;2.40;;;;;;;;;;5012978;28;20176;-69
2024/01/02 10:16:11;;;;;;;2.37;1.90;;;;;;;;;;5013748;28;20615;-69
2024/01/02 10:18:37;;;;;;;2.30;2.10;;;;;;;;;;5013247;28;20653;-71
2024/01/02 10:21:22;;;;;;;1.70;1.60;;;;;;;;;;5013943;28;20183;-69
2024/01/02 10:23:57;;;;;;;1.40;1.30;;;;;;;;;;5012651;28;20655;-71
2024/01/02 10:26:25;;;;;;;1.53;1.43;;;;;;;;;;5012362;28;20202;-71
2024/01/02 10:28:51;;;;;;;1.80;1.70;;;;;;;;;;5012264;28;20294;-71
2024/01/02 10:31:36;;;;;;;1.70;1.60;;;;;;;;;;5011932;28;20211;-70
2024/01/02 10:34:22;;;;;;;2.93;1.80;;;;;;;;;;5013151;28;20245;-70
2024/01/02 10:36:52;;;;;;;1.80;1.70;;;;;;;;;;5013261;28;20168;-71
2024/01/02 10:39:18;;;;;;;1.93;1.83;;;;;;;;;;5013193;28;20260;-71
2024/01/02 10:41:44;;;;;;;2.30;2.00;;;;;;;;;;5011817;28;20223;-70
2024/01/02 10:44:13;;;;;;;2.03;1.93;;;;;;;;;;5011329;28;20223;-69
2024/01/02 10:46:47;;;;;;;2.93;1.53;;;;;;;;;;5013312;28;20239;-71
2024/01/02 10:49:22;;;;;;;1.20;1.20;;;;;;;;;;5013277;28;20206;-71
2024/01/02 10:51:52;;;;;;;1.30;1.20;;;;;;;;;;5011704;28;20258;-70
2024/01/02 10:54:37;;;;;;;1.10;1.00;;;;;;;;;;5011425;28;20246;-70
2024/01/02 10:57:07;;;;;;;2.97;1.20;;;;;;;;;;5011755;28;20226;-70
2024/01/02 10:59:33;;;;;;;2.00;1.07;;;;;;;;;;5012998;28;20583;-70
2024/01/02 11:02:18;;;;;;;0.97;0.97;;;;;;;;;;5013042;28;20175;-70
2024/01/02 11:05:03;;;;;;;1.20;1.10;;;;;;;;;;5013033;28;20349;-70
2024/01/02 11:07:35;;;;;;;0.90;0.90;;;;;;;;;;5012960;28;20168;-70
2024/01/02 11:10:08;;;;;;;0.97;0.97;;;;;;;;;;5013320;28;20251;-71
2024/01/02 11:12:57;;;;;;;1.10;1.00;;;;;;;;;;5013195;28;20203;-71
2024/01/02 11:15:25;;;;;;;0.87;0.87;;;;;;;;;;5007400;28;20302;-71
2024/01/02 11:17:52;;;;;;;0.80;0.73;;;;;;;;;;5013284;28;20258;-70
2024/01/02 11:20:20;;;;;;;0.70;0.70;;;;;;;;;;5013026;28;20250;-70
2024/01/02 11:23:03;;;;;;;0.80;0.80;;;;;;;;;;5018164;28;20237;-71
2024/01/02 11:25:29;;;;;;;2.03;0.87;;;;;;;;;;5024706;28;20250;-71
2024/01/02 11:27:57;;;;;;;0.80;0.80;;;;;;;;;;5029499;28;20175;-69
2024/01/02 11:30:24;;;;;;;0.67;0.67;;;;;;;;;;5034065;28;20176;-69
2024/01/02 11:33:09;;;;;;;1.00;0.90;;;;;;;;;;5034761;28;20194;-71
2024/01/02 11:35:41;;;;;;;0.77;0.77;;;;;;;;;;5036025;28;20696;-70
2024/01/02 11:38:09;;;;;;;0.60;0.60;;;;;;;;;;5034334;28;20164;-70
2024/01/02 11:40:44;;;;;;;0.70;0.70;;;;;;;;;;5024849;28;20258;-70
2024/01/02 11:43:17;;;;;;;0.73;0.73;;;;;;;;;;5019976;28;20179;-70
2024/01/02 11:45:43;;;;;;;0.70;0.70;;;;;;;;;;5019395;28;20226;-70
2024/01/02 11:48:09;;;;;;;0.70;0.70;;;;;;;;;;5015968;28;20234;-70
2024/01/02 11:50:55;;;;;;;0.70;0.70;;;;;;;;;;5023796;28;20176;-71
2024/01/02 11:53:24;;;;;;;1.10;0.90;;;;;;;;;;5016046;28;20176;-70
2024/01/02 11:55:58;;;;;;;0.73;0.73;;;;;;;;;;5016769;28;20701;-70
2024/01/02 11:58:31;;;;;;;0.90;0.90;;;;;;;;;;5016537;28;20182;-70
2024/01/02 12:01:08;;;;;;;0.90;0.90;;;;;;;;;;5016393;28;20222;-70
2024/01/02 12:03:40;;;;;;;2.20;1.00;;;;;;;;;;5016838;28;20187;-70
2024/01/02 12:06:09;;;;;;;1.10;1.00;;;;;;;;;;5015311;28;20214;-71
2024/01/02 12:08:38;;;;;;;1.13;1.00;;;;;;;;;;5015057;28;20179;-71
2024/01/02 12:11:06;;;;;;;1.10;1.07;;;;;;;;;;5015896;28;20643;-71
2024/01/02 12:13:35;;;;;;;1.27;1.10;;;;;;;;;;5015911;28;20259;-71
2024/01/02 12:16:04;;;;;;;0.90;0.90;;;;;;;;;;5015771;28;20190;-72
2024/01/02 12:18:33;;;;;;;1.40;0.90;;;;;;;;;;5014552;28;20198;-71
2024/01/02 12:21:09;;;;;;;1.20;1.10;;;;;;;;;;5014304;28;20202;-71
2024/01/02 12:23:35;;;;;;;1.10;1.00;;;;;;;;;;5014611;28;20218;-71
2024/01/02 12:26:05;;;;;;;2.20;1.10;;;;;;;;;;5016133;28;20211;-71
2024/01/02 12:28:32;;;;;;;1.10;1.00;;;;;;;;;;5015661;28;20254;-71
2024/01/02 12:31:16;;;;;;;1.40;1.30;;;;;;;;;;5014211;28;20183;-71
2024/01/02 12:33:46;;;;;;;1.70;1.60;;;;;;;;;;5015568;28;20715;-72
2024/01/02 12:36:16;;;;;;;2.30;1.90;;;;;;;;;;5015454;28;20176;-73
2024/01/02 12:38:52;;;;;;;2.50;2.20;;;;;;;;;;5013943;28;20183;-72
2024/01/02 12:41:25;;;;;;;2.50;2.30;;;;;;;;;;5013519;28;20180;-73
2024/01/02 12:43:53;;;;;;;2.97;2.00;;;;;;;;;;5015801;28;20236;-73
2024/01/02 12:46:38;;;;;;;1.50;1.40;;;;;;;;;;5015152;28;20203;-72
2024/01/02 12:49:15;;;;;;;1.63;1.50;;;;;;;;;;5015285;28;20226;-72
2024/01/02 12:51:45;;;;;;;1.30;1.20;;;;;;;;;;5013901;28;20186;-72
2024/01/02 12:54:12;;;;;;;1.37;1.23;;;;;;;;;;5014747;28;20219;-71
2024/01/02 12:56:41;;;;;;;2.20;1.20;;;;;;;;;;5015596;28;20567;-72
2024/01/02 12:59:07;;;;;;;1.13;1.03;;;;;;;;;;5014956;28;20179;-72
2024/01/02 13:01:34;;;;;;;1.20;0.90;;;;;;;;;;5015326;28;20270;-73
2024/01/02 13:04:00;;;;;;;1.83;1.37;;;;;;;;;;5015174;28;20207;-70
2024/01/02 13:06:27;;;;;;;1.23;1.13;;;;;;;;;;5013586;28;20204;-71
2024/01/02 13:08:53;;;;;;;1.70;1.00;;;;;;;;;;5014713;28;20233;-73
2024/01/02 13:11:21;;;;;;;3.13;1.17;;;;;;;;;;5014974;28;20591;-71
2024/01/02 13:13:48;;;;;;;2.10;1.10;;;;;;;;;;5013550;28;20186;-73
2024/01/02 13:16:14;;;;;;;3.73;1.20;;;;;;;;;;5014763;28;20187;-73
2024/01/02 13:18:40;;;;;;;2.50;1.07;;;;;;;;;;5014782;28;20250;-70
2024/01/02 13:21:06;;;;;;;1.70;1.03;;;;;;;;;;5014547;28;20648;-71
2024/01/02 13:23:32;;;;;;;1.33;1.20;;;;;;;;;;5014918;28;20184;-69
2024/01/02 13:25:58;;;;;;;2.23;1.20;;;;;;;;;;5013228;28;20227;-73
2024/01/02 13:28:26;;;;;;;1.37;1.10;;;;;;;;;;5013040;28;20187;-71
2024/01/02 13:30:53;;;;;;;1.33;1.10;;;;;;;;;;5014606;28;20657;-72
2024/01/02 13:33:22;;;;;;;3.00;1.13;;;;;;;;;;5014324;28;20256;-72
2024/01/02 13:36:01;;;;;;;1.37;1.03;;;;;;;;;;5014735;28;20282;-73
2024/01/02 13:38:28;;;;;;;3.03;1.30;;;;;;;;;;5013032;28;20209;-73
2024/01/02 13:41:03;;;;;;;1.10;1.00;;;;;;;;;;5012894;28;20218;-71
2024/01/02 13:43:29;;;;;;;2.20;1.50;;;;;;;;;;5012699;28;20179;-74
2024/01/02 13:46:08;;;;;;;2.30;1.30;;;;;;;;;;5014116;28;20203;-73
2024/01/02 13:48:34;;;;;;;2.20;1.63;;;;;;;;;;5014240;28;20171;-73
2024/01/02 13:51:03;;;;;;;5.73;1.60;;;;;;;;;;5012452;28;20207;-71
2024/01/02 13:53:29;;;;;;;4.40;1.70;;;;;;;;;;5013805;28;20176;-71
2024/01/02 13:55:55;;;;;;;1.53;1.20;;;;;;;;;;5012357;28;20284;-72
2024/01/02 13:58:22;;;;;;;3.37;1.93;;;;;;;;;;5014663;28;20184;-71
2024/01/02 14:00:48;;;;;;;11.93;5.97;;;;;;;;;;5013287;28;20187;-73
2024/01/02 14:03:19;;;;;;;6.33;3.40;;;;;;;;;;5013430;28;20731;-73
2024/01/02 14:05:56;;;;;;;3.87;3.37;;;;;;;;;;5013149;28;20215;-73
2024/01/02 14:08:25;;;;;;;4.17;3.77;;;;;;;;;;5013932;28;20171;-73
2024/01/02 14:10:51;;;;;;;6.63;5.77;;;;;;;;;;5013313;28;20600;-72
2024/01/02 14:13:30;;;;;;;9.20;7.50;;;;;;;;;;5013604;28;20171;-73
2024/01/02 14:16:00;;;;;;;9.67;6.77;;;;;;;;;;5012423;28;20183;-73
2024/01/02 14:18:31;;;;;;;10.40;7.60;;;;;;;;;;5013727;28;20169;-74
2024/01/02 14:21:04;;;;;;;7.20;3.80;;;;;;;;;;5013723;28;20234;-72
2024/01/02 14:23:41;;;;;;;2.40;2.10;;;;;;;;;;5012192;28;20175;-72
2024/01/02 14:26:11;;;;;;;3.57;3.27;;;;;;;;;;5013567;28;20199;-74
2024/01/02 14:28:51;;;;;;;9.93;7.70;;;;;;;;;;5013624;28;20258;-74
2024/01/02 14:31:29;;;;;;;6.00;3.67;;;;;;;;;;5013406;28;20160;-75
2024/01/02 14:34:24;;;;;;;21.07;15.83;;;;;;;;;;5013827;28;20191;-71
2024/01/02 14:36:55;;;;;;;8.97;6.67;;;;;;;;;;4961287;28;20251;-74
2024/01/02 14:39:37;;;;;;;6.93;5.70;;;;;;;;;;5012599;28;20537;-74
2024/01/02 14:42:25;;;;;;;3.07;2.50;;;;;;;;;;5013695;28;20590;-72
2024/01/02 14:45:03;;;;;;;13.03;10.13;;;;;;;;;;5013137;28;20370;-72
2024/01/02 14:47:33;;;;;;;5.00;4.00;;;;;;;;;;5013029;28;20178;-73
2024/01/02 14:50:01;;;;;;;5.57;4.27;;;;;;;;;;5012117;28;20180;-73